createdAt,value
2022-09-28T00:01:41.831Z,962.01
2022-09-28T00:07:13.426Z,962.32
2022-09-28T00:12:45.013Z,961.79
2022-09-28T00:18:16.934Z,961.8
2022-09-28T00:23:48.594Z,962.02
2022-09-28T00:29:20.226Z,961.66
2022-09-28T00:34:52.109Z,961.64
2022-09-28T00:40:23.825Z,961.53
2022-09-28T00:45:55.674Z,961.65
2022-09-28T00:51:31.501Z,961.94
2022-09-28T00:57:03.178Z,961.67
2022-09-28T01:02:34.953Z,961.98
2022-09-28T01:08:06.677Z,961.71
2022-09-28T01:13:38.451Z,962.16
2022-09-28T01:19:10.194Z,961.7
2022-09-28T01:24:41.890Z,962.09
2022-09-28T01:30:13.556Z,961.56
2022-09-28T01:35:45.325Z,961.55
2022-09-28T01:41:17.034Z,961.55
2022-09-28T01:46:48.757Z,961.0
2022-09-28T01:52:24.869Z,961.01
2022-09-28T01:57:56.872Z,960.76
2022-09-28T02:03:28.233Z,961.03
2022-09-28T02:09:00.029Z,961.1
2022-09-28T02:14:31.835Z,961.3
2022-09-28T02:20:03.480Z,961.29
2022-09-28T02:25:35.241Z,961.12
2022-09-28T02:31:07.473Z,961.43
2022-09-28T02:36:38.645Z,961.44
2022-09-28T02:42:10.450Z,961.3
2022-09-28T02:47:42.181Z,961.01
2022-09-28T02:53:20.296Z,961.16
2022-09-28T02:58:52.061Z,961.17
2022-09-28T03:04:23.711Z,961.26
2022-09-28T03:09:55.401Z,960.93
2022-09-28T03:15:27.182Z,960.95
2022-09-28T03:20:58.873Z,961.1
2022-09-28T03:26:30.525Z,961.16
2022-09-28T03:32:02.246Z,961.27
2022-09-28T03:37:34.151Z,961.84
2022-09-28T03:43:05.870Z,961.67
2022-09-28T03:48:37.467Z,961.85
2022-09-28T03:54:13.594Z,961.81
2022-09-28T03:59:45.354Z,961.98
2022-09-28T04:05:17.114Z,961.76
2022-09-28T04:10:48.937Z,961.81
2022-09-28T04:16:20.697Z,961.68
2022-09-28T04:21:52.208Z,962.14
2022-09-28T04:27:23.965Z,962.07
2022-09-28T04:32:55.829Z,961.97
2022-09-28T04:38:53.882Z,961.92
2022-09-28T04:43:59.187Z,962.27
2022-09-28T04:49:31.014Z,961.58
2022-09-28T04:55:07.073Z,961.59
2022-09-28T05:00:38.666Z,962.3
2022-09-28T05:06:10.390Z,962.45
2022-09-28T05:11:42.125Z,962.57
2022-09-28T05:17:13.914Z,962.2
2022-09-28T05:22:45.697Z,962.18
2022-09-28T05:28:17.282Z,962.21
2022-09-28T05:33:49.057Z,962.28
2022-09-28T05:39:20.905Z,962.38
2022-09-28T05:44:52.813Z,962.31
2022-09-28T05:50:24.204Z,962.14
2022-09-28T05:56:00.357Z,962.01
2022-09-28T06:01:32.482Z,962.29
2022-09-28T06:07:03.882Z,962.52
2022-09-28T06:12:35.705Z,962.46
2022-09-28T06:18:07.284Z,962.5
2022-09-28T06:23:46.930Z,962.78
2022-09-28T06:29:18.662Z,962.53
2022-09-28T06:34:42.465Z,962.86
2022-09-28T06:40:14.149Z,963.02
2022-09-28T06:45:46.072Z,963.11
2022-09-28T06:51:17.665Z,963.05
2022-09-28T06:56:53.717Z,963.19
2022-09-28T07:02:25.570Z,963.2
2022-09-28T07:07:57.350Z,963.07
2022-09-28T07:13:51.584Z,963.05
2022-09-28T07:19:00.680Z,963.4
2022-09-28T07:24:32.368Z,963.28
2022-09-28T07:30:04.487Z,963.33
2022-09-28T07:35:35.840Z,963.73
2022-09-28T07:41:07.726Z,963.41
2022-09-28T07:46:39.255Z,963.26
2022-09-28T07:52:11.082Z,964.09
2022-09-28T07:57:49.204Z,964.18
2022-09-28T08:03:21.161Z,964.04
2022-09-28T08:08:52.699Z,963.7
2022-09-28T08:14:24.894Z,964.01
2022-09-28T08:19:56.222Z,963.89
2022-09-28T08:25:27.822Z,964.55
2022-09-28T08:30:59.789Z,964.34
2022-09-28T08:36:31.139Z,964.42
2022-09-28T08:42:02.998Z,964.45
2022-09-28T08:47:34.758Z,964.45
2022-09-28T08:53:06.721Z,964.32
2022-09-28T08:58:42.530Z,964.68
2022-09-28T09:04:14.437Z,965.17
2022-09-28T09:09:46.006Z,964.74
2022-09-28T09:15:17.725Z,964.89
2022-09-28T09:20:49.399Z,965.17
2022-09-28T09:26:26.543Z,965.43
2022-09-28T09:31:53.284Z,965.23
2022-09-28T09:37:24.672Z,965.56
2022-09-28T09:42:56.597Z,965.3
2022-09-28T09:48:28.137Z,965.56
2022-09-28T09:53:59.748Z,965.79
2022-09-28T09:59:37.909Z,965.77
2022-09-28T10:05:09.777Z,965.68
2022-09-28T10:10:41.371Z,965.51
2022-09-28T10:16:13.205Z,965.74
2022-09-28T10:21:44.806Z,965.56
2022-09-28T10:27:16.535Z,965.67
2022-09-28T10:32:48.194Z,965.57
2022-09-28T10:38:19.894Z,965.62
2022-09-28T10:43:58.402Z,965.72
2022-09-28T10:49:23.426Z,965.57
2022-09-28T10:54:55.169Z,965.09
2022-09-28T11:00:33.229Z,965.13
2022-09-28T11:06:05.264Z,965.42
2022-09-28T11:11:36.846Z,965.59
2022-09-28T11:17:08.764Z,965.29
2022-09-28T11:22:40.197Z,965.69
2022-09-28T11:28:12.029Z,965.85
2022-09-28T11:33:43.565Z,965.97
2022-09-28T11:39:15.493Z,966.02
2022-09-28T11:44:47.123Z,965.75
2022-09-28T11:50:25.105Z,965.34
2022-09-28T11:55:50.663Z,965.3
2022-09-28T12:01:26.534Z,965.43
2022-09-28T12:06:58.398Z,965.25
2022-09-28T12:12:29.936Z,965.14
2022-09-28T12:18:02.055Z,965.11
2022-09-28T12:23:33.460Z,965.27
2022-09-28T12:29:05.237Z,964.57
2022-09-28T12:34:36.906Z,965.14
2022-09-28T12:40:08.869Z,964.82
2022-09-28T12:46:13.053Z,964.08
2022-09-28T12:51:12.213Z,963.97
2022-09-28T12:56:43.821Z,964.26
2022-09-28T13:02:20.289Z,964.34
2022-09-28T13:07:51.648Z,964.29
2022-09-28T13:13:24.179Z,964.39
2022-09-28T13:18:55.155Z,964.42
2022-09-28T13:24:34.149Z,964.32
2022-09-28T13:30:01.705Z,964.35
2022-09-28T13:35:30.197Z,963.69
2022-09-28T13:41:02.149Z,963.7
2022-09-28T13:46:33.877Z,963.95
2022-09-28T13:52:05.629Z,963.79
2022-09-28T13:57:37.183Z,963.97
2022-09-28T14:03:13.358Z,963.42
2022-09-28T14:08:45.041Z,963.61
2022-09-28T14:14:16.893Z,963.37
2022-09-28T14:19:48.503Z,963.36
2022-09-28T14:25:20.216Z,963.37
2022-09-28T14:30:52.226Z,963.61
2022-09-28T14:36:23.626Z,963.55
2022-09-28T14:41:55.381Z,963.5
2022-09-28T14:47:27.139Z,963.12
2022-09-28T14:52:59.125Z,963.56
2022-09-28T14:58:31.496Z,963.49
2022-09-28T15:04:06.780Z,963.54
2022-09-28T15:09:38.425Z,963.02
2022-09-28T15:15:10.146Z,963.43
2022-09-28T15:20:41.807Z,963.16
2022-09-28T15:26:13.762Z,962.97
2022-09-28T15:31:45.352Z,962.88
2022-09-28T15:37:17.083Z,962.95
2022-09-28T15:42:48.810Z,962.68
2022-09-28T15:48:20.586Z,962.47
2022-09-28T15:53:52.185Z,962.5
2022-09-28T15:59:23.906Z,962.4
2022-09-28T16:05:00.202Z,962.65
2022-09-28T16:10:31.866Z,962.53
2022-09-28T16:16:03.736Z,962.69
2022-09-28T16:21:35.285Z,962.68
2022-09-28T16:27:07.053Z,962.34
2022-09-28T16:32:38.823Z,962.42
2022-09-28T16:38:10.449Z,962.41
2022-09-28T16:43:42.158Z,962.28
2022-09-28T16:49:13.838Z,962.19
2022-09-28T16:54:45.571Z,962.12
2022-09-28T17:00:17.333Z,962.17
2022-09-28T17:05:55.458Z,962.03
2022-09-28T17:11:27.136Z,961.79
2022-09-28T17:17:16.939Z,961.41
2022-09-28T17:22:30.783Z,960.92
2022-09-28T17:28:02.370Z,961.12
2022-09-28T17:33:34.163Z,961.01
2022-09-28T17:39:05.851Z,960.95
2022-09-28T17:44:37.608Z,960.93
2022-09-28T17:50:09.286Z,960.88
2022-09-28T17:55:41.079Z,960.79
2022-09-28T18:01:12.885Z,960.76
2022-09-28T18:06:48.918Z,960.7
2022-09-28T18:12:20.526Z,960.68
2022-09-28T18:17:52.465Z,960.73
2022-09-28T18:23:24.392Z,960.73
2022-09-28T18:28:55.821Z,960.63
2022-09-28T18:34:27.552Z,960.6
2022-09-28T18:39:59.316Z,960.58
2022-09-28T18:45:30.974Z,960.66
2022-09-28T18:51:02.729Z,960.67
2022-09-28T18:56:34.392Z,960.48
2022-09-28T19:02:06.508Z,960.72
2022-09-28T19:07:42.283Z,960.71
2022-09-28T19:13:14.172Z,960.7
2022-09-28T19:18:45.652Z,960.51
2022-09-28T19:24:17.481Z,960.48
2022-09-28T19:29:49.175Z,960.36
2022-09-28T19:35:20.956Z,960.64
2022-09-28T19:40:52.798Z,960.67
2022-09-28T19:46:24.566Z,960.43
2022-09-28T19:52:15.790Z,960.81
2022-09-28T19:57:27.897Z,961.06
2022-09-28T20:02:59.673Z,961.0
2022-09-28T20:08:35.677Z,960.88
2022-09-28T20:14:09.696Z,960.98
2022-09-28T20:19:39.101Z,960.95
2022-09-28T20:25:10.922Z,960.86
2022-09-28T20:30:42.596Z,961.09
2022-09-28T20:36:14.270Z,960.9
2022-09-28T20:41:45.935Z,961.22
2022-09-28T20:47:17.841Z,961.35
2022-09-28T20:52:49.401Z,961.52
2022-09-28T20:58:21.102Z,961.38
2022-09-28T21:03:52.972Z,961.13
2022-09-28T21:09:30.974Z,961.02
2022-09-28T21:15:06.761Z,960.91
2022-09-28T21:20:34.490Z,961.24
2022-09-28T21:26:06.173Z,961.39
2022-09-28T21:31:38.162Z,961.22
2022-09-28T21:37:09.670Z,961.26
2022-09-28T21:42:41.394Z,961.12
2022-09-28T21:48:13.253Z,960.81
2022-09-28T21:53:44.741Z,961.02
2022-09-28T21:59:16.482Z,961.44
2022-09-28T22:04:48.257Z,961.54
2022-09-28T22:10:24.449Z,961.57
2022-09-28T22:15:56.292Z,961.43
2022-09-28T22:21:27.905Z,961.5
2022-09-28T22:26:59.602Z,961.21
2022-09-28T22:32:31.229Z,960.84
2022-09-28T22:38:03.061Z,960.81
2022-09-28T22:43:35.089Z,961.32
2022-09-28T22:49:06.401Z,961.39
2022-09-28T22:54:38.145Z,961.4
2022-09-28T23:00:09.870Z,961.0
2022-09-28T23:05:41.709Z,961.06
2022-09-28T23:11:17.711Z,961.42
2022-09-28T23:16:49.901Z,961.1
2022-09-28T23:22:21.229Z,961.03
2022-09-28T23:27:52.828Z,961.13
2022-09-28T23:33:24.614Z,961.46
2022-09-28T23:38:56.363Z,961.41
2022-09-28T23:44:28.012Z,961.42
2022-09-28T23:49:59.785Z,961.3
2022-09-28T23:55:31.462Z,961.49
